Hoegh Copenhagen — LAIJ7 — position and weather

sailwx.info

Track history (hours):
 
Tides and Currents Weather Stations Pressure Air Temp Water Temp Dewpoint Dewpoint Depression Visibility Wind Speed Wind Dir Waves Ship Positions

Hoegh Copenhagen

Last reported at 2018-Feb-11 17:37 UTC. Time now 2018-Feb-19 06:33 UTC.
Position S 24°06' W 046°23'.

Length 229 m; draft 8.5 m.

Type: Other ship. MMSI: 257368000.

Date/timePositionNaut miles runAvg speedWind from/ knotsBaromVisibWave heightAir tempDewpointWater temp
2018-Feb-11 17:37S 24°06' W 046°23'214.6
2018-Feb-11 17:30S 24°04' W 046°22'510.3
2018-Feb-11 17:00S 23°60' W 046°20'3 5.1
2018-Feb-11 16:30S 23°58' W 046°18'0 0.4
2018-Feb-11 15:58S 23°58' W 046°18'0 0.0
2018-Feb-11 15:19S 23°58' W 046°18'0 0.0
2018-Feb-11 14:55S 23°58' W 046°18'0 0.0
2018-Feb-11 14:25S 23°58' W 046°18'0 0.0
2018-Feb-11 13:55S 23°58' W 046°18'0 0.0
2018-Feb-11 13:28S 23°58' W 046°18'0 0.0
2018-Feb-11 12:55S 23°58' W 046°18'0 0.0
2018-Feb-11 12:16S 23°58' W 046°18'0 0.0
2018-Feb-11 11:55S 23°58' W 046°18'0 0.0
2018-Feb-11 11:28S 23°58' W 046°18'0 0.0
2018-Feb-11 10:58S 23°58' W 046°18'0 0.0
2018-Feb-11 10:25S 23°58' W 046°18'0 0.0
2018-Feb-11 09:55S 23°58' W 046°18'0 0.0
2018-Feb-11 09:28S 23°58' W 046°18'0 0.0
2018-Feb-11 08:55S 23°58' W 046°18'0 0.0
2018-Feb-11 08:25S 23°58' W 046°18'0 0.0
2018-Feb-11 07:55S 23°58' W 046°18'0 0.0
2018-Feb-11 07:28S 23°58' W 046°18'0 0.0
2018-Feb-11 06:49S 23°58' W 046°18'0 0.0
2018-Feb-11 06:25S 23°58' W 046°18'0 0.0
2018-Feb-11 05:55S 23°58' W 046°18'0 0.0
2018-Feb-11 05:25S 23°58' W 046°18'0 0.0
2018-Feb-11 04:58S 23°58' W 046°18'0 0.0
2018-Feb-11 04:30S 23°58' W 046°18'1 2.5
2018-Feb-11 04:00S 23°59' W 046°17'3 6.8
2018-Feb-11 03:30S 24°01' W 046°20'4 8.0
2018-Feb-11 03:00S 24°04' W 046°22'610.7
2018-Feb-11 02:29S 24°10' W 046°24'611.4
2018-Feb-11 01:55S 24°16' W 046°25'0 0.7
2018-Feb-11 01:30S 24°16' W 046°25'1 0.8
2018-Feb-11 00:43S 24°16' W 046°25'1 0.9
2018-Feb-10 23:26S 24°15' W 046°25'84 3.8
2018-Feb-10 01:18S 23°56' W 044°55'2920.3
2018-Feb-09 23:52S 23°41' W 044°28'1119.9
2018-Feb-09 23:19S 23°38' W 044°17'1019.6
2018-Feb-09 22:49S 23°33' W 044°07'119.6
2018-Feb-09 22:46S 23°33' W 044°06'519.5
2018-Feb-09 22:30S 23°30' W 044°01'1019.7
2018-Feb-09 22:00S 23°26' W 043°52'  
Track history (hours):
 
Tides and Currents Weather Stations Pressure Air Temp Water Temp Dewpoint Dewpoint Depression Visibility Wind Speed Wind Dir Waves Ship Positions

Hoegh Copenhagen

Last reported at 2018-Feb-11 17:37 UTC. Time now 2018-Feb-19 06:33 UTC.
Position S 24°06' W 046°23'.

Length 229 m; draft 8.5 m.

Type: Other ship. MMSI: 257368000.

Date/timePositionNaut miles runAvg speedWind from/ knotsBaromVisibWave heightAir tempDewpointWater temp
2018-Feb-11 17:37S 24°06' W 046°23'214.6
2018-Feb-11 17:30S 24°04' W 046°22'510.3
2018-Feb-11 17:00S 23°60' W 046°20'3 5.1
2018-Feb-11 16:30S 23°58' W 046°18'0 0.4
2018-Feb-11 15:58S 23°58' W 046°18'0 0.0
2018-Feb-11 15:19S 23°58' W 046°18'0 0.0
2018-Feb-11 14:55S 23°58' W 046°18'0 0.0
2018-Feb-11 14:25S 23°58' W 046°18'0 0.0
2018-Feb-11 13:55S 23°58' W 046°18'0 0.0
2018-Feb-11 13:28S 23°58' W 046°18'0 0.0
2018-Feb-11 12:55S 23°58' W 046°18'0 0.0
2018-Feb-11 12:16S 23°58' W 046°18'0 0.0
2018-Feb-11 11:55S 23°58' W 046°18'0 0.0
2018-Feb-11 11:28S 23°58' W 046°18'0 0.0
2018-Feb-11 10:58S 23°58' W 046°18'0 0.0
2018-Feb-11 10:25S 23°58' W 046°18'0 0.0
2018-Feb-11 09:55S 23°58' W 046°18'0 0.0
2018-Feb-11 09:28S 23°58' W 046°18'0 0.0
2018-Feb-11 08:55S 23°58' W 046°18'0 0.0
2018-Feb-11 08:25S 23°58' W 046°18'0 0.0
2018-Feb-11 07:55S 23°58' W 046°18'0 0.0
2018-Feb-11 07:28S 23°58' W 046°18'0 0.0
2018-Feb-11 06:49S 23°58' W 046°18'0 0.0
2018-Feb-11 06:25S 23°58' W 046°18'0 0.0
2018-Feb-11 05:55S 23°58' W 046°18'0 0.0
2018-Feb-11 05:25S 23°58' W 046°18'0 0.0
2018-Feb-11 04:58S 23°58' W 046°18'0 0.0
2018-Feb-11 04:30S 23°58' W 046°18'1 2.5
2018-Feb-11 04:00S 23°59' W 046°17'3 6.8
2018-Feb-11 03:30S 24°01' W 046°20'4 8.0
2018-Feb-11 03:00S 24°04' W 046°22'610.7
2018-Feb-11 02:29S 24°10' W 046°24'611.4
2018-Feb-11 01:55S 24°16' W 046°25'0 0.7
2018-Feb-11 01:30S 24°16' W 046°25'1 0.8
2018-Feb-11 00:43S 24°16' W 046°25'1 0.9
2018-Feb-10 23:26S 24°15' W 046°25'84 3.8
2018-Feb-10 01:18S 23°56' W 044°55'2920.3
2018-Feb-09 23:52S 23°41' W 044°28'1119.9
2018-Feb-09 23:19S 23°38' W 044°17'1019.6
2018-Feb-09 22:49S 23°33' W 044°07'119.6
2018-Feb-09 22:46S 23°33' W 044°06'519.5
2018-Feb-09 22:30S 23°30' W 044°01'1019.7
2018-Feb-09 22:00S 23°26' W 043°52'  

Dump ship's entire track history